Portada
METAR-TAF:

METAR-TAF

Aeroports :

Chitose, Japó

latitud: 42-48N, longitud: 141-40E, altitud: 27 m

Observació

L'informe es va fer fa 31 minuts, a les 18:30 UTC
Vent 3 kt del Nord
Temperatura 2°C
Humitat 100%
Pressió 1022 hPa
Visibilitat 10 km o més
Escasses núvols a una alçada de 1500 ft

METAR: RJCC 301830Z 36003KT 9999 FEW015 02/02 Q1022 RMK 1ST015 A3020

Hora: 04:01 (19:01 UTC)

Pronòstic

L'informe es va fer fa 1 hora i 56 minuts, a les 17:05 UTC
Pronòstic vàlid del 30 a les 18 UTC al 01 a les 00 UTC
Vent 11 kt del Nord
Visibilitat 10 km o més
Escasses núvols a una alçada de 2000 ft
Cel ennuvolat a una alçada de 4000 ft
Evolucionant progressivament
l' 31 a les 06 UTC al 31 a les 09 UTC
Vent 5 kt del Sud/Sud-Est

TAF: RJCC 301705Z 3018/0100 35011KT 9999 FEW020 BKN040 BECMG 3106/3109 15005KT

Observacions i pronòstics meteorològics de més de 4000 aeroports (METAR i TAF).

Les estacions disponibles són els punts grocs i vermells al mapa.

Posi el ratolí al punt desitjat per veure el nom de l'estació.

Feu clic per veure les observacions i els pronòstics meteorològics.

Per canviar el mapa: feu clic els botons verds amb una creu de color negre per apropar; al botó verd amb un guió per allunyar la imatge; o en les fletxes verdes per a mapes adjacents.


METAR-TAF: